createdAt,value
2023-03-11T00:00:47.258Z,0.77
2023-03-11T00:01:50.149Z,0.75
2023-03-11T00:02:55.927Z,0.79
2023-03-11T00:04:00.245Z,0.76
2023-03-11T00:05:02.769Z,0.68
2023-03-11T00:06:05.512Z,0.69
2023-03-11T00:07:12.353Z,0.79
2023-03-11T00:08:18.004Z,0.73
2023-03-11T00:09:20.402Z,0.70
2023-03-11T00:10:40.550Z,0.84
2023-03-11T00:11:43.075Z,0.70
2023-03-11T00:12:45.953Z,0.73
2023-03-11T00:13:48.481Z,0.67
2023-03-11T00:14:50.994Z,0.66
2023-03-11T00:15:56.337Z,0.72
2023-03-11T00:16:59.038Z,0.67
2023-03-11T00:18:02.174Z,0.65
2023-03-11T00:19:04.676Z,0.71
2023-03-11T00:20:08.280Z,0.74
2023-03-11T00:21:17.282Z,0.81
2023-03-11T00:22:19.804Z,0.73
2023-03-11T00:23:22.445Z,0.70
2023-03-11T00:24:24.963Z,0.68
2023-03-11T00:25:30.364Z,0.78
2023-03-11T00:26:32.896Z,0.73
2023-03-11T00:27:37.326Z,0.67
2023-03-11T00:28:39.849Z,0.75
2023-03-11T00:29:42.367Z,0.76
2023-03-11T00:30:46.735Z,0.82
2023-03-11T00:31:49.216Z,0.81
2023-03-11T00:32:53.862Z,0.88
2023-03-11T00:33:57.486Z,0.78
2023-03-11T00:35:00.008Z,0.76
2023-03-11T00:36:02.714Z,0.78
2023-03-11T00:37:05.294Z,0.86
2023-03-11T00:38:11.886Z,0.88
2023-03-11T00:39:15.249Z,0.87
2023-03-11T00:40:20.539Z,0.89
2023-03-11T00:41:23.052Z,0.88
2023-03-11T00:42:25.578Z,0.84
2023-03-11T00:43:28.211Z,0.96
2023-03-11T00:44:30.730Z,0.96
2023-03-11T00:45:33.977Z,0.95
2023-03-11T00:46:36.524Z,0.87
2023-03-11T00:47:39.381Z,0.94
2023-03-11T00:48:41.902Z,0.91
2023-03-11T00:49:44.425Z,0.92
2023-03-11T00:50:46.934Z,0.97
2023-03-11T00:51:49.577Z,0.94
2023-03-11T00:52:52.820Z,0.88
2023-03-11T00:53:56.299Z,0.93
2023-03-11T00:54:59.905Z,0.95
2023-03-11T00:56:10.706Z,0.97
2023-03-11T00:57:15.023Z,0.92
2023-03-11T00:58:19.115Z,0.91
2023-03-11T00:59:24.509Z,0.86
2023-03-11T01:00:29.670Z,0.86
2023-03-11T01:01:32.201Z,0.80
2023-03-11T01:02:36.387Z,0.92
2023-03-11T01:03:39.510Z,0.75
2023-03-11T01:04:42.039Z,0.75
2023-03-11T01:05:44.670Z,0.75
2023-03-11T01:06:47.211Z,0.67
2023-03-11T01:07:50.308Z,0.64
2023-03-11T01:08:52.962Z,0.68
2023-03-11T01:09:55.470Z,0.68
2023-03-11T01:10:59.071Z,0.71
2023-03-11T01:12:01.588Z,0.66
2023-03-11T01:13:04.957Z,0.70
2023-03-11T01:14:07.478Z,0.58
2023-03-11T01:15:17.550Z,0.63
2023-03-11T01:16:21.424Z,0.53
2023-03-11T01:17:25.110Z,0.58
2023-03-11T01:18:27.654Z,0.52
2023-03-11T01:19:30.273Z,0.59
2023-03-11T01:20:32.799Z,0.51
2023-03-11T01:21:35.313Z,0.54
2023-03-11T01:22:37.836Z,0.53
2023-03-11T01:23:41.319Z,0.58
2023-03-11T01:24:43.886Z,0.45
2023-03-11T01:25:46.719Z,0.51
2023-03-11T01:26:49.239Z,0.47
2023-03-11T01:27:52.729Z,0.47
2023-03-11T01:28:55.393Z,0.42
2023-03-11T01:29:57.883Z,0.44
2023-03-11T01:31:00.681Z,0.39
2023-03-11T01:32:03.167Z,0.45
2023-03-11T01:33:07.728Z,0.53
2023-03-11T01:34:10.363Z,0.49
2023-03-11T01:35:16.008Z,0.56
2023-03-11T01:36:18.665Z,0.51
2023-03-11T01:37:21.186Z,0.47
2023-03-11T01:38:24.049Z,0.41
2023-03-11T01:39:26.927Z,0.44
2023-03-11T01:40:34.006Z,0.41
2023-03-11T01:41:40.019Z,0.63
2023-03-11T01:42:42.648Z,0.35
2023-03-11T01:43:45.077Z,0.43
2023-03-11T01:44:50.571Z,0.46
2023-03-11T01:45:53.394Z,0.43
2023-03-11T01:47:02.455Z,0.43
2023-03-11T01:48:10.013Z,0.40
2023-03-11T01:49:13.377Z,0.36
2023-03-11T01:50:16.497Z,0.35
2023-03-11T01:51:41.695Z,0.43
2023-03-11T01:52:46.018Z,0.28
2023-03-11T01:53:49.138Z,0.30
2023-03-11T01:54:52.042Z,0.25
2023-03-11T01:55:55.022Z,0.31
2023-03-11T01:56:59.340Z,0.38
2023-03-11T01:58:06.059Z,0.35
2023-03-11T01:59:11.578Z,0.36
2023-03-11T02:00:18.065Z,0.32
2023-03-11T02:01:24.226Z,0.28
2023-03-11T02:02:40.578Z,0.43
2023-03-11T02:03:43.378Z,0.36
2023-03-11T02:04:47.458Z,0.35
2023-03-11T02:05:52.983Z,0.48
2023-03-11T02:06:58.860Z,0.45
2023-03-11T02:08:01.862Z,0.36
2023-03-11T02:09:08.705Z,0.36
2023-03-11T02:10:13.688Z,0.47
2023-03-11T02:11:22.164Z,0.54
2023-03-11T02:12:25.510Z,0.53
2023-03-11T02:13:29.106Z,0.51
2023-03-11T02:14:32.109Z,0.50
2023-03-11T02:15:34.631Z,0.51
2023-03-11T02:16:37.272Z,0.56
2023-03-11T02:17:42.558Z,0.63
2023-03-11T02:18:45.199Z,0.58
2023-03-11T02:20:29.115Z,0.72
2023-03-11T02:21:34.405Z,0.67
2023-03-11T02:22:41.605Z,0.72
2023-03-11T02:23:53.973Z,0.72
2023-03-11T02:25:18.685Z,0.78
2023-03-11T02:26:25.049Z,0.61
2023-03-11T02:27:29.125Z,0.67
2023-03-11T02:28:33.443Z,0.74
2023-03-11T02:29:37.644Z,0.72
2023-03-11T02:30:42.925Z,0.74
2023-03-11T02:31:46.314Z,0.76
2023-03-11T02:32:49.798Z,0.73
2023-03-11T02:33:56.370Z,0.79
2023-03-11T02:34:59.015Z,0.69
2023-03-11T02:36:01.723Z,0.71
2023-03-11T02:37:09.939Z,0.82
2023-03-11T02:38:14.129Z,0.75
2023-03-11T02:39:17.620Z,0.79
2023-03-11T02:40:23.029Z,0.93
2023-03-11T02:41:30.333Z,0.88
2023-03-11T02:42:33.333Z,0.78
2023-03-11T02:43:43.660Z,0.83
2023-03-11T02:45:12.585Z,0.82
2023-03-11T02:46:15.647Z,0.71
2023-03-11T02:47:18.214Z,0.70
2023-03-11T02:48:22.179Z,0.82
2023-03-11T02:49:24.935Z,0.75
2023-03-11T02:50:29.257Z,0.76
2023-03-11T02:51:32.017Z,0.70
2023-03-11T02:52:36.545Z,0.73
2023-03-11T02:53:48.559Z,0.78
2023-03-11T02:54:52.139Z,0.64
2023-03-11T02:55:55.976Z,0.56
2023-03-11T02:57:00.082Z,0.57
2023-03-11T02:58:04.018Z,0.57
2023-03-11T02:59:07.019Z,0.47
2023-03-11T03:00:14.179Z,0.61
2023-03-11T03:01:21.993Z,0.61
2023-03-11T03:02:28.840Z,0.46
2023-03-11T03:03:33.398Z,0.44
2023-03-11T03:04:38.075Z,0.42
2023-03-11T03:05:41.916Z,0.42
2023-03-11T03:06:46.366Z,0.56
2023-03-11T03:07:52.722Z,0.42
2023-03-11T03:08:56.314Z,0.45
2023-03-11T03:10:02.939Z,0.52
2023-03-11T03:11:06.658Z,0.54
2023-03-11T03:12:09.610Z,0.51
2023-03-11T03:13:13.908Z,0.45
2023-03-11T03:14:18.767Z,0.46
2023-03-11T03:15:22.592Z,0.42
2023-03-11T03:16:25.952Z,0.45
2023-03-11T03:17:32.937Z,0.50
2023-03-11T03:18:36.271Z,0.45
2023-03-11T03:19:46.609Z,0.68
2023-03-11T03:20:52.138Z,0.46
2023-03-11T03:21:56.472Z,0.40
2023-03-11T03:23:01.872Z,0.35
2023-03-11T03:24:07.702Z,0.34
2023-03-11T03:25:15.150Z,0.34
2023-03-11T03:26:18.766Z,0.28
2023-03-11T03:27:26.232Z,0.33
2023-03-11T03:28:30.606Z,0.39
2023-03-11T03:29:37.280Z,0.42
2023-03-11T03:30:41.368Z,0.35
2023-03-11T03:31:45.563Z,0.39
2023-03-11T03:32:50.021Z,0.47
2023-03-11T03:33:54.044Z,0.37
2023-03-11T03:35:01.862Z,0.41
2023-03-11T03:36:21.510Z,0.47
2023-03-11T03:37:33.792Z,0.54
2023-03-11T03:38:42.238Z,0.53
2023-03-11T03:39:45.642Z,0.51
2023-03-11T03:40:50.511Z,0.66
2023-03-11T03:41:57.291Z,0.54
2023-03-11T03:43:02.100Z,0.61
2023-03-11T03:44:06.727Z,0.49
2023-03-11T03:45:13.024Z,0.47
2023-03-11T03:46:18.581Z,0.45
2023-03-11T03:47:24.396Z,0.45
2023-03-11T03:48:29.824Z,0.43
2023-03-11T03:49:32.946Z,0.44
2023-03-11T03:50:36.430Z,0.47
2023-03-11T03:51:39.805Z,0.47
2023-03-11T03:52:48.636Z,0.45
2023-03-11T03:53:56.014Z,0.46
2023-03-11T03:55:01.638Z,0.40
2023-03-11T03:56:12.690Z,0.47
2023-03-11T03:57:15.813Z,0.33
2023-03-11T03:58:23.106Z,0.36
2023-03-11T03:59:26.197Z,0.36
2023-03-11T04:00:33.074Z,0.33
2023-03-11T04:01:38.755Z,0.37
2023-03-11T04:02:42.869Z,0.41
2023-03-11T04:03:55.888Z,0.41
2023-03-11T04:05:00.034Z,0.39
2023-03-11T04:06:15.813Z,0.52
2023-03-11T04:07:22.001Z,0.36
2023-03-11T04:08:25.187Z,0.34
2023-03-11T04:09:29.378Z,0.35
2023-03-11T04:10:32.871Z,0.24
2023-03-11T04:11:35.698Z,0.27
2023-03-11T04:12:40.836Z,0.22
2023-03-11T04:13:45.441Z,0.27
2023-03-11T04:14:49.380Z,0.24
2023-03-11T04:15:52.630Z,0.22
2023-03-11T04:16:56.155Z,0.23
2023-03-11T04:17:59.647Z,0.24
2023-03-11T04:19:05.006Z,0.18
2023-03-11T04:20:10.063Z,0.09
2023-03-11T04:21:13.080Z,0.05
2023-03-11T04:22:16.604Z,0.01
2023-03-11T04:23:19.850Z,0.15
2023-03-11T04:24:23.251Z,0.05
2023-03-11T04:25:26.373Z,0.01
2023-03-11T04:26:31.033Z,-0.01
2023-03-11T04:27:34.431Z,-0.10
2023-03-11T04:28:40.405Z,0.03
2023-03-11T04:29:45.088Z,-0.06
2023-03-11T04:30:49.011Z,-0.10
2023-03-11T04:31:52.158Z,-0.15
2023-03-11T04:32:58.161Z,-0.01
2023-03-11T04:34:02.734Z,-0.09
2023-03-11T04:35:08.017Z,0.02
2023-03-11T04:36:16.173Z,-0.11
2023-03-11T04:37:19.421Z,-0.20
2023-03-11T04:38:22.537Z,-0.17
2023-03-11T04:39:25.955Z,-0.17
2023-03-11T04:40:28.597Z,-0.18
2023-03-11T04:41:31.002Z,-0.12
2023-03-11T04:42:33.518Z,-0.16
2023-03-11T04:43:36.765Z,-0.13
2023-03-11T04:44:39.401Z,-0.15
2023-03-11T04:45:47.969Z,-0.19
2023-03-11T04:46:50.800Z,-0.23
2023-03-11T04:47:53.320Z,-0.17
2023-03-11T04:48:55.842Z,-0.17
2023-03-11T04:49:58.362Z,-0.13
2023-03-11T04:51:01.010Z,-0.30
2023-03-11T04:52:05.082Z,-0.30
2023-03-11T04:53:07.612Z,-0.29
2023-03-11T04:54:10.485Z,-0.33
2023-03-11T04:55:13.983Z,-0.36
2023-03-11T04:56:17.451Z,-0.35
2023-03-11T04:57:20.086Z,-0.45
2023-03-11T04:58:23.449Z,-0.35
2023-03-11T04:59:26.089Z,-0.41
2023-03-11T05:00:28.970Z,-0.35
2023-03-11T05:01:39.092Z,-0.44
2023-03-11T05:02:43.731Z,-0.49
2023-03-11T05:03:47.825Z,-0.50
2023-03-11T05:04:50.479Z,-0.39
2023-03-11T05:05:56.690Z,-0.53
2023-03-11T05:06:59.457Z,-0.50
2023-03-11T05:08:02.236Z,-0.54
2023-03-11T05:09:06.056Z,-0.64
2023-03-11T05:10:12.553Z,-0.58
2023-03-11T05:11:15.175Z,-0.62
2023-03-11T05:12:19.737Z,-0.70
2023-03-11T05:13:25.977Z,-0.66
2023-03-11T05:14:29.220Z,-0.73
2023-03-11T05:15:33.093Z,-0.73
2023-03-11T05:16:37.764Z,-0.68
2023-03-11T05:17:40.985Z,-0.74
2023-03-11T05:18:43.751Z,-0.73
2023-03-11T05:19:48.910Z,-0.76
2023-03-11T05:21:01.282Z,-0.78
2023-03-11T05:22:07.741Z,-0.75
2023-03-11T05:23:10.150Z,-0.83
2023-03-11T05:24:13.385Z,-0.84
2023-03-11T05:25:15.905Z,-0.82
2023-03-11T05:26:19.154Z,-0.76
2023-03-11T05:27:22.652Z,-0.85
2023-03-11T05:28:29.467Z,-0.89
2023-03-11T05:29:32.226Z,-0.90
2023-03-11T05:30:34.873Z,-0.87
2023-03-11T05:31:39.069Z,-0.89
2023-03-11T05:32:41.647Z,-0.96
2023-03-11T05:33:44.246Z,-0.96
2023-03-11T05:34:48.793Z,-0.93
2023-03-11T05:35:52.448Z,-0.88
2023-03-11T05:36:55.994Z,-0.93
2023-03-11T05:37:59.495Z,-0.97
2023-03-11T05:39:04.517Z,-0.94
2023-03-11T05:40:12.207Z,-0.91
2023-03-11T05:41:14.837Z,-0.96
2023-03-11T05:42:21.264Z,-1.07
2023-03-11T05:43:25.281Z,-1.07
2023-03-11T05:44:30.323Z,-1.08
2023-03-11T05:45:32.963Z,-1.07
2023-03-11T05:46:37.369Z,-1.06
2023-03-11T05:47:42.443Z,-0.98
2023-03-11T05:48:47.130Z,-1.03
2023-03-11T05:49:50.256Z,-1.06
2023-03-11T05:50:54.627Z,-1.04
2023-03-11T05:51:58.840Z,-1.06
2023-03-11T05:53:03.088Z,-1.08
2023-03-11T05:54:11.645Z,-1.09
2023-03-11T05:55:15.931Z,-1.07
2023-03-11T05:56:22.411Z,-1.07
2023-03-11T05:57:25.416Z,-1.11
2023-03-11T05:58:29.239Z,-0.99
2023-03-11T05:59:32.729Z,-1.05
2023-03-11T06:00:38.500Z,-1.05
2023-03-11T06:01:43.172Z,-1.03
2023-03-11T06:02:46.685Z,-1.02
2023-03-11T06:03:52.504Z,-1.04
2023-03-11T06:04:54.981Z,-1.05
2023-03-11T06:05:57.577Z,-1.06
2023-03-11T06:07:00.215Z,-1.02
2023-03-11T06:08:05.614Z,-1.04
2023-03-11T06:09:12.699Z,-0.95
2023-03-11T06:10:15.696Z,-1.00
2023-03-11T06:11:18.818Z,-1.01
2023-03-11T06:12:21.462Z,-0.99
2023-03-11T06:13:59.507Z,-1.03
2023-03-11T06:15:04.795Z,-0.99
2023-03-11T06:16:08.546Z,-0.89
2023-03-11T06:17:11.143Z,-0.97
2023-03-11T06:18:14.619Z,-0.95
2023-03-11T06:19:17.263Z,-1.00
2023-03-11T06:20:23.745Z,-0.98
2023-03-11T06:21:27.226Z,-1.00
2023-03-11T06:22:29.876Z,-0.95
2023-03-11T06:23:32.384Z,-0.95
2023-03-11T06:24:37.066Z,-0.88
2023-03-11T06:25:39.944Z,-0.90
2023-03-11T06:26:44.143Z,-0.91
2023-03-11T06:27:53.401Z,-0.83
2023-03-11T06:28:56.987Z,-0.91
2023-03-11T06:29:59.505Z,-0.83
2023-03-11T06:31:12.049Z,-0.68
2023-03-11T06:32:14.816Z,-0.76
2023-03-11T06:33:18.469Z,-0.73
2023-03-11T06:34:22.092Z,-0.71
2023-03-11T06:35:24.593Z,-0.68
2023-03-11T06:36:27.360Z,-0.72
2023-03-11T06:37:30.111Z,-0.66
2023-03-11T06:38:35.689Z,-0.59
2023-03-11T06:39:39.593Z,-0.57
2023-03-11T06:40:42.477Z,-0.53
2023-03-11T06:41:45.118Z,-0.47
2023-03-11T06:42:48.717Z,-0.45
2023-03-11T06:43:51.967Z,-0.50
2023-03-11T06:44:54.486Z,-0.43
2023-03-11T06:45:57.735Z,-0.30
2023-03-11T06:47:02.403Z,-0.19
2023-03-11T06:48:05.428Z,-0.07
2023-03-11T06:49:08.879Z,0.11
2023-03-11T06:50:12.844Z,0.19
2023-03-11T06:51:15.364Z,0.35
2023-03-11T06:52:18.015Z,0.48
2023-03-11T06:53:20.523Z,0.60
2023-03-11T06:54:23.053Z,0.76
2023-03-11T06:55:25.923Z,0.88
2023-03-11T06:56:28.453Z,1.04
2023-03-11T06:57:39.007Z,1.40
2023-03-11T06:58:45.855Z,1.56
2023-03-11T06:59:50.049Z,1.90
2023-03-11T07:00:53.558Z,2.01
2023-03-11T07:01:56.166Z,2.30
2023-03-11T07:02:58.809Z,2.18
2023-03-11T07:04:01.610Z,2.29
2023-03-11T07:05:05.175Z,2.26
2023-03-11T07:06:13.093Z,2.71
2023-03-11T07:07:15.733Z,2.66
2023-03-11T07:08:18.762Z,3.04
2023-03-11T07:09:23.059Z,3.33
2023-03-11T07:10:25.575Z,3.44
2023-03-11T07:11:29.191Z,3.46
2023-03-11T07:12:42.282Z,3.60
2023-03-11T07:13:45.025Z,4.12
2023-03-11T07:14:47.559Z,4.01
2023-03-11T07:15:50.182Z,4.07
2023-03-11T07:16:52.649Z,4.44
2023-03-11T07:18:20.300Z,4.55
2023-03-11T07:19:22.824Z,4.71
2023-03-11T07:20:25.344Z,4.81
2023-03-11T07:21:29.426Z,4.72
2023-03-11T07:22:31.952Z,4.95
2023-03-11T07:23:35.912Z,5.33
2023-03-11T07:24:38.431Z,5.35
2023-03-11T07:25:46.824Z,5.56
2023-03-11T07:26:49.235Z,4.93
2023-03-11T07:27:51.745Z,5.49
2023-03-11T07:28:55.479Z,6.11
2023-03-11T07:29:57.993Z,5.63
2023-03-11T07:31:00.873Z,5.52
2023-03-11T07:32:03.782Z,5.72
2023-03-11T07:33:06.517Z,5.64
2023-03-11T07:34:12.889Z,6.17
2023-03-11T07:35:15.395Z,6.13
2023-03-11T07:36:23.450Z,6.47
2023-03-11T07:37:25.960Z,6.36
2023-03-11T07:38:28.483Z,6.02
2023-03-11T07:39:31.117Z,5.94
2023-03-11T07:40:33.395Z,5.80
2023-03-11T07:41:36.645Z,6.22
2023-03-11T07:42:40.484Z,5.98
2023-03-11T07:43:43.476Z,6.36
2023-03-11T07:44:46.119Z,6.83
2023-03-11T07:45:49.011Z,7.21
2023-03-11T07:46:51.520Z,7.34
2023-03-11T07:47:54.038Z,7.37
2023-03-11T07:48:57.042Z,6.92
2023-03-11T07:49:59.564Z,6.66
2023-03-11T07:51:07.602Z,6.38
2023-03-11T07:52:10.150Z,6.50
2023-03-11T07:53:12.644Z,6.71
2023-03-11T07:54:15.184Z,6.81
2023-03-11T07:55:17.807Z,6.38
2023-03-11T07:56:21.415Z,6.61
2023-03-11T07:57:24.054Z,6.15
2023-03-11T07:58:27.053Z,6.44
2023-03-11T07:59:29.689Z,6.65
2023-03-11T08:00:32.328Z,7.18
2023-03-11T08:01:41.203Z,6.87
2023-03-11T08:02:43.900Z,6.60
2023-03-11T08:03:48.213Z,6.96
2023-03-11T08:04:50.693Z,7.38
2023-03-11T08:05:53.825Z,7.64
2023-03-11T08:06:56.338Z,7.68
2023-03-11T08:07:58.731Z,7.78
2023-03-11T08:09:03.773Z,8.27
2023-03-11T08:10:07.019Z,8.00
2023-03-11T08:11:09.776Z,8.27
2023-03-11T08:12:12.413Z,8.36
2023-03-11T08:13:14.963Z,8.80
2023-03-11T08:14:17.694Z,9.45
2023-03-11T08:15:20.218Z,9.32
2023-03-11T08:16:22.980Z,8.80
2023-03-11T08:17:25.513Z,8.89
2023-03-11T08:18:28.024Z,9.33
2023-03-11T08:19:30.555Z,8.94
2023-03-11T08:20:32.945Z,8.83
2023-03-11T08:21:35.469Z,9.16
2023-03-11T08:22:43.432Z,9.49
2023-03-11T08:23:52.501Z,9.33
2023-03-11T08:24:56.631Z,9.11
2023-03-11T08:25:59.466Z,9.73
2023-03-11T08:27:01.984Z,10.76
2023-03-11T08:28:04.507Z,10.30
2023-03-11T08:29:07.028Z,10.51
2023-03-11T08:30:10.147Z,10.22
2023-03-11T08:31:17.273Z,10.67
2023-03-11T08:32:19.826Z,10.53
2023-03-11T08:33:22.409Z,11.58
2023-03-11T08:34:27.693Z,12.25
2023-03-11T08:35:30.593Z,12.60
2023-03-11T08:36:33.569Z,11.99
2023-03-11T08:37:36.075Z,11.53
2023-03-11T08:38:38.638Z,13.16
2023-03-11T08:39:41.244Z,13.48
2023-03-11T08:40:43.755Z,12.54
2023-03-11T08:41:46.154Z,12.66
2023-03-11T08:43:52.401Z,11.49
2023-03-11T08:44:54.916Z,12.49
2023-03-11T08:45:59.730Z,13.35
2023-03-11T08:47:02.143Z,14.47
2023-03-11T08:48:04.641Z,13.63
2023-03-11T08:49:07.399Z,13.25
2023-03-11T08:50:14.966Z,13.25
2023-03-11T08:51:17.736Z,13.70
2023-03-11T08:52:20.128Z,13.66
2023-03-11T08:53:23.245Z,13.49
2023-03-11T08:54:25.763Z,12.82
2023-03-11T08:55:28.646Z,12.26
2023-03-11T08:56:31.282Z,11.65
2023-03-11T08:57:33.816Z,12.10
2023-03-11T08:58:36.584Z,12.36
2023-03-11T08:59:39.119Z,12.97
2023-03-11T09:00:41.724Z,13.63
2023-03-11T09:01:44.491Z,13.53
2023-03-11T09:02:47.879Z,13.33
2023-03-11T09:03:50.385Z,13.61
2023-03-11T09:04:52.897Z,13.32
2023-03-11T09:06:04.325Z,13.95
2023-03-11T09:07:06.933Z,13.47
2023-03-11T09:08:09.568Z,13.31
2023-03-11T09:09:12.455Z,13.42
2023-03-11T09:10:16.532Z,13.38
2023-03-11T09:11:19.301Z,13.73
2023-03-11T09:12:21.941Z,12.19
2023-03-11T09:13:24.460Z,12.08
2023-03-11T09:14:26.975Z,12.02
2023-03-11T09:15:29.499Z,12.20
2023-03-11T09:16:32.070Z,13.34
2023-03-11T09:17:34.665Z,14.06
2023-03-11T09:18:37.182Z,13.99
2023-03-11T09:19:39.697Z,14.08
2023-03-11T09:20:43.421Z,13.44
2023-03-11T09:21:46.064Z,12.23
2023-03-11T09:22:48.943Z,11.90
2023-03-11T09:23:51.471Z,13.27
2023-03-11T09:24:53.983Z,13.79
2023-03-11T09:25:56.385Z,14.02
2023-03-11T09:26:59.023Z,14.42
2023-03-11T09:28:01.554Z,13.68
2023-03-11T09:29:04.067Z,13.67
2023-03-11T09:30:07.427Z,12.62
2023-03-11T09:31:10.055Z,12.97
2023-03-11T09:32:14.362Z,13.70
2023-03-11T09:33:16.907Z,13.82
2023-03-11T09:34:19.678Z,14.45
2023-03-11T09:35:22.229Z,15.00
2023-03-11T09:36:24.830Z,15.16
2023-03-11T09:37:29.998Z,15.15
2023-03-11T09:38:32.544Z,14.82
2023-03-11T09:39:35.033Z,14.19
2023-03-11T09:40:52.456Z,13.45
2023-03-11T09:41:59.208Z,13.74
2023-03-11T09:43:14.278Z,14.50
2023-03-11T09:44:42.849Z,14.73
2023-03-11T09:45:56.999Z,15.00
2023-03-11T09:47:33.481Z,14.91
2023-03-11T09:48:44.534Z,14.14
2023-03-11T09:50:06.128Z,14.10
2023-03-11T09:51:20.402Z,13.40
2023-03-11T09:52:37.802Z,14.12
2023-03-11T09:53:45.485Z,14.60
2023-03-11T09:54:52.920Z,15.86
2023-03-11T09:56:05.525Z,14.08
2023-03-11T09:57:14.767Z,13.44
2023-03-11T09:58:37.809Z,14.52
2023-03-11T09:59:42.125Z,14.54
2023-03-11T10:00:45.252Z,15.91
2023-03-11T10:01:50.329Z,14.70
2023-03-11T10:02:53.154Z,14.86
2023-03-11T10:04:03.368Z,14.41
2023-03-11T10:05:22.452Z,15.04
2023-03-11T10:06:28.931Z,15.07
2023-03-11T10:07:39.729Z,14.09
2023-03-11T10:08:56.898Z,13.51
2023-03-11T10:10:00.389Z,14.52
2023-03-11T10:11:27.143Z,14.51
2023-03-11T10:13:08.652Z,15.56
2023-03-11T10:14:16.816Z,15.70
2023-03-11T10:15:39.991Z,14.88
2023-03-11T10:17:07.476Z,15.16
2023-03-11T10:18:28.260Z,16.35
2023-03-11T10:19:34.149Z,16.25
2023-03-11T10:20:46.335Z,15.62
2023-03-11T10:22:07.216Z,16.30
2023-03-11T10:23:35.459Z,16.77
2023-03-11T10:24:50.447Z,15.24
2023-03-11T10:26:11.181Z,15.03
2023-03-11T10:27:19.593Z,15.49
2023-03-11T10:28:28.821Z,14.69
2023-03-11T10:29:41.782Z,14.89
2023-03-11T10:30:58.108Z,15.70
2023-03-11T10:32:38.527Z,15.60
2023-03-11T10:34:03.036Z,17.36
2023-03-11T10:35:21.510Z,17.98
2023-03-11T10:36:29.677Z,18.22
2023-03-11T10:37:49.240Z,19.52
2023-03-11T10:38:54.512Z,19.63
2023-03-11T10:40:07.956Z,19.59
2023-03-11T10:41:19.348Z,20.20
2023-03-11T10:42:25.952Z,20.86
2023-03-11T10:43:40.119Z,18.38
2023-03-11T10:44:43.233Z,17.79
2023-03-11T10:45:48.581Z,18.69
2023-03-11T10:46:51.155Z,18.12
2023-03-11T10:47:56.079Z,18.67
2023-03-11T10:48:58.602Z,18.15
2023-03-11T10:50:01.011Z,18.30
2023-03-11T10:51:15.278Z,18.62
2023-03-11T10:52:17.799Z,18.69
2023-03-11T10:53:21.303Z,19.03
2023-03-11T10:54:26.680Z,18.79
2023-03-11T10:55:29.085Z,18.17
2023-03-11T10:56:35.678Z,16.33
2023-03-11T10:57:39.043Z,15.93
2023-03-11T10:58:49.135Z,17.27
2023-03-11T10:59:58.726Z,18.02
2023-03-11T11:01:14.405Z,17.72
2023-03-11T11:02:43.649Z,18.29
2023-03-11T11:03:50.034Z,18.39
2023-03-11T11:05:07.369Z,17.16
2023-03-11T11:06:31.998Z,17.55
2023-03-11T11:07:39.673Z,16.87
2023-03-11T11:08:42.051Z,17.36
2023-03-11T11:09:44.576Z,17.38
2023-03-11T11:11:01.992Z,16.51
2023-03-11T11:12:14.823Z,15.89
2023-03-11T11:13:20.577Z,15.87
2023-03-11T11:14:23.223Z,16.36
2023-03-11T11:15:31.992Z,17.54
2023-03-11T11:16:35.467Z,17.29
2023-03-11T11:17:38.112Z,16.46
2023-03-11T11:18:49.282Z,16.78
2023-03-11T11:19:53.460Z,16.93
2023-03-11T11:21:03.422Z,16.80
2023-03-11T11:22:06.665Z,17.26
2023-03-11T11:23:26.347Z,17.56
2023-03-11T11:24:31.386Z,16.86
2023-03-11T11:25:38.703Z,17.92
2023-03-11T11:26:41.346Z,18.73
2023-03-11T11:27:56.228Z,18.71
2023-03-11T11:29:14.829Z,17.27
2023-03-11T11:30:18.979Z,17.30
2023-03-11T11:31:26.122Z,16.31
2023-03-11T11:32:29.417Z,15.29
2023-03-11T11:33:50.114Z,15.26
2023-03-11T11:35:05.266Z,15.90
2023-03-11T11:36:15.923Z,16.90
2023-03-11T11:37:18.557Z,17.07
2023-03-11T11:38:24.680Z,16.71
2023-03-11T11:39:31.201Z,17.29
2023-03-11T11:40:34.213Z,17.73
2023-03-11T11:41:37.157Z,17.82
2023-03-11T11:42:43.152Z,17.71
2023-03-11T11:43:56.268Z,17.75
2023-03-11T11:45:27.686Z,17.46
2023-03-11T11:46:48.793Z,17.07
2023-03-11T11:47:55.762Z,17.45
2023-03-11T11:49:01.517Z,17.38
2023-03-11T11:50:13.171Z,17.11
2023-03-11T11:51:22.519Z,17.00
2023-03-11T11:52:30.930Z,16.26
2023-03-11T11:53:48.802Z,16.51
2023-03-11T11:54:53.968Z,15.82
2023-03-11T11:55:56.501Z,16.51
2023-03-11T11:57:00.563Z,15.36
2023-03-11T11:58:03.080Z,15.83
2023-03-11T11:59:15.201Z,15.82
2023-03-11T12:00:20.367Z,17.01
2023-03-11T12:01:40.371Z,16.92
2023-03-11T12:03:01.407Z,16.82
2023-03-11T12:04:12.568Z,17.00
2023-03-11T12:05:27.523Z,16.92
2023-03-11T12:06:49.533Z,16.45
2023-03-11T12:08:07.526Z,16.98
2023-03-11T12:09:15.208Z,16.91
2023-03-11T12:10:34.289Z,17.43
2023-03-11T12:11:57.459Z,16.58
2023-03-11T12:13:18.458Z,16.86
2023-03-11T12:14:31.068Z,17.22
2023-03-11T12:15:41.524Z,18.09
2023-03-11T12:16:43.898Z,16.55
2023-03-11T12:17:50.615Z,17.26
2023-03-11T12:19:12.958Z,16.02
2023-03-11T12:20:21.095Z,15.59
2023-03-11T12:22:14.254Z,15.90
2023-03-11T12:23:43.777Z,16.22
2023-03-11T12:25:08.861Z,15.85
2023-03-11T12:26:16.792Z,16.54
2023-03-11T12:27:36.462Z,17.03
2023-03-11T12:28:49.190Z,16.75
2023-03-11T12:30:02.397Z,16.15
2023-03-11T12:31:09.880Z,16.14
2023-03-11T12:32:28.710Z,15.80
2023-03-11T12:33:38.274Z,16.16
2023-03-11T12:34:40.784Z,15.11
2023-03-11T12:35:52.331Z,15.02
2023-03-11T12:37:04.194Z,15.73
2023-03-11T12:38:17.755Z,14.47
2023-03-11T12:39:33.835Z,13.98
2023-03-11T12:40:48.232Z,14.28
2023-03-11T12:42:25.195Z,14.09
2023-03-11T12:43:36.138Z,14.36
2023-03-11T12:44:40.070Z,14.49
2023-03-11T12:45:53.408Z,14.20
2023-03-11T12:46:58.641Z,13.71
2023-03-11T12:48:36.476Z,14.22
2023-03-11T12:49:44.154Z,13.43
2023-03-11T12:50:47.291Z,13.25
2023-03-11T12:52:04.692Z,13.22
2023-03-11T12:53:17.308Z,13.71
2023-03-11T12:55:10.342Z,13.94
2023-03-11T12:56:37.443Z,14.03
2023-03-11T12:57:53.405Z,14.16
2023-03-11T12:59:07.688Z,13.60
2023-03-11T13:00:18.328Z,12.51
2023-03-11T13:01:58.516Z,13.12
2023-03-11T13:03:09.852Z,12.89
2023-03-11T13:04:30.492Z,13.01
2023-03-11T13:06:21.281Z,12.28
2023-03-11T13:07:25.819Z,12.31
2023-03-11T13:08:33.266Z,12.69
2023-03-11T13:09:35.776Z,12.35
2023-03-11T13:10:41.176Z,12.22
2023-03-11T13:11:46.339Z,11.54
2023-03-11T13:12:52.941Z,11.83
2023-03-11T13:14:14.951Z,12.11
2023-03-11T13:15:20.057Z,11.90
2023-03-11T13:16:22.499Z,11.53
2023-03-11T13:17:25.876Z,11.64
2023-03-11T13:18:30.625Z,12.29
2023-03-11T13:19:35.901Z,11.86
2023-03-11T13:20:44.419Z,11.72
2023-03-11T13:21:46.943Z,11.18
2023-03-11T13:22:58.584Z,11.04
2023-03-11T13:24:19.486Z,11.44
2023-03-11T13:25:35.794Z,11.14
2023-03-11T13:26:44.189Z,10.90
2023-03-11T13:27:51.269Z,11.28
2023-03-11T13:28:59.551Z,11.39
2023-03-11T13:30:10.667Z,11.38
2023-03-11T13:31:16.034Z,10.80
2023-03-11T13:32:40.391Z,10.85
2023-03-11T13:33:54.393Z,10.54
2023-03-11T13:35:11.561Z,10.35
2023-03-11T13:36:19.371Z,10.36
2023-03-11T13:37:21.759Z,10.67
2023-03-11T13:38:39.279Z,10.75
2023-03-11T13:39:55.008Z,10.46
2023-03-11T13:40:58.481Z,10.04
2023-03-11T13:42:01.598Z,10.03
2023-03-11T13:43:30.170Z,9.37
2023-03-11T13:44:37.612Z,9.30
2023-03-11T13:45:40.417Z,8.97
2023-03-11T13:46:49.916Z,9.15
2023-03-11T13:47:54.644Z,9.40
2023-03-11T13:49:12.166Z,9.45
2023-03-11T13:50:31.130Z,9.59
2023-03-11T13:51:42.882Z,9.59
2023-03-11T13:52:50.108Z,9.67
2023-03-11T13:54:04.735Z,9.38
2023-03-11T13:55:18.046Z,9.33
2023-03-11T13:56:28.254Z,9.37
2023-03-11T13:57:32.337Z,9.01
2023-03-11T13:58:34.850Z,9.09
2023-03-11T13:59:37.252Z,9.39
2023-03-11T14:00:48.240Z,9.65
2023-03-11T14:01:52.378Z,9.66
2023-03-11T14:02:56.332Z,9.58
2023-03-11T14:03:58.871Z,9.70
2023-03-11T14:05:13.743Z,9.56
2023-03-11T14:06:19.839Z,9.70
2023-03-11T14:07:31.943Z,9.95
2023-03-11T14:08:36.545Z,9.86
2023-03-11T14:09:39.313Z,9.99
2023-03-11T14:10:52.618Z,10.24
2023-03-11T14:12:03.554Z,9.67
2023-03-11T14:13:19.257Z,9.58
2023-03-11T14:14:47.836Z,9.80
2023-03-11T14:15:59.221Z,9.52
2023-03-11T14:17:04.027Z,9.58
2023-03-11T14:18:27.421Z,9.97
2023-03-11T14:19:30.182Z,10.00
2023-03-11T14:20:32.753Z,9.64
2023-03-11T14:21:35.944Z,9.52
2023-03-11T14:22:38.821Z,9.76
2023-03-11T14:23:44.967Z,9.82
2023-03-11T14:24:48.431Z,9.95
2023-03-11T14:25:59.343Z,9.47
2023-03-11T14:27:03.425Z,9.64
2023-03-11T14:28:06.710Z,9.66
2023-03-11T14:29:15.432Z,9.71
2023-03-11T14:30:22.039Z,9.80
2023-03-11T14:31:30.789Z,9.91
2023-03-11T14:32:34.935Z,9.10
2023-03-11T14:33:37.388Z,8.71
2023-03-11T14:34:41.355Z,8.65
2023-03-11T14:35:56.049Z,9.01